Time;durP1;ratioP1;P1;durP2;ratioP2;P2;SDS_P1;SDS_P2;PMS_P1;PMS_P2;Temp;Humidity;BMP_temperature;BMP_pressure;BME280_temperature;BME280_humidity;BME280_pressure;Samples;Min_cycle;Max_cycle;Signal;HPM_P1;HPM_P2
2021/04/01 00:00:49;;;;;;;9.60;4.05;;;15.30;42.30;;;15.70;36.04;97943.28;5022295;28;20053;-60
2021/04/01 00:03:17;;;;;;;5.95;3.40;;;15.40;42.90;;;15.68;35.95;97939.09;5022858;28;20442;-60
2021/04/01 00:05:45;;;;;;;9.85;4.05;;;15.30;42.50;;;15.66;35.81;97933.91;5024101;28;20037;-60
2021/04/01 00:08:13;;;;;;;8.32;3.45;;;15.30;42.50;;;15.66;35.74;97928.56;5023409;28;20053;-60
2021/04/01 00:10:45;;;;;;;5.72;3.72;;;15.30;42.60;;;15.63;35.90;97928.94;5025054;28;20254;-60
2021/04/01 00:13:13;;;;;;;7.07;3.67;;;15.20;42.90;;;15.62;35.73;97924.56;5024410;28;20049;-61
2021/04/01 00:15:42;;;;;;;7.60;3.50;;;15.20;42.40;;;15.64;35.73;97919.03;5023057;28;20057;-60
2021/04/01 00:18:18;;;;;;;8.43;3.92;;;15.20;42.30;;;15.64;35.85;97919.84;5023727;28;20055;-61
2021/04/01 00:20:46;;;;;;;4.63;3.00;;;15.20;42.40;;;15.61;35.52;97914.88;5023346;28;20049;-61
2021/04/01 00:23:14;;;;;;;5.00;3.40;;;15.10;42.40;;;15.62;35.48;97923.75;5023013;28;20283;-61
2021/04/01 00:25:42;;;;;;;3.42;3.00;;;15.10;42.30;;;15.62;35.85;97915.72;5024925;28;20045;-61
2021/04/01 00:28:09;;;;;;;6.18;3.63;;;15.20;42.50;;;15.62;35.95;97918.38;5024219;28;20208;-61
2021/04/01 00:30:36;;;;;;;6.35;3.80;;;15.10;42.60;;;15.59;36.15;97910.72;5024366;28;20067;-60
2021/04/01 00:33:04;;;;;;;6.10;4.75;;;15.10;43.10;;;15.52;36.33;97913.31;5024002;28;20053;-61
2021/04/01 00:35:32;;;;;;;6.70;3.17;;;15.00;43.70;;;15.43;36.73;97906.38;5024759;28;20045;-61
2021/04/01 00:37:59;;;;;;;5.72;3.63;;;14.90;44.30;;;15.37;36.85;97907.94;5023898;28;20343;-61
2021/04/01 00:40:27;;;;;;;6.25;3.47;;;14.80;44.60;;;15.32;37.07;97911.19;5024225;28;20407;-61
2021/04/01 00:42:55;;;;;;;11.38;4.35;;;14.70;44.90;;;15.24;37.35;97907.78;5027796;28;20058;-61
2021/04/01 00:45:23;;;;;;;5.15;3.53;;;14.60;45.30;;;15.19;37.47;97913.69;5027767;28;20041;-61
2021/04/01 00:47:53;;;;;;;6.22;3.60;;;14.70;45.20;;;15.13;37.66;97915.25;5028958;28;20293;-61
2021/04/01 00:50:28;;;;;;;5.20;3.85;;;14.60;45.70;;;15.08;37.87;97906.06;5030330;28;20053;-61
2021/04/01 00:52:56;;;;;;;5.47;2.90;;;14.50;46.20;;;15.02;37.89;97910.31;5028280;28;20360;-61
2021/04/01 00:55:25;;;;;;;4.88;3.17;;;14.40;46.10;;;14.96;37.97;97908.38;5028635;28;20075;-61
2021/04/01 00:57:57;;;;;;;3.40;2.70;;;14.40;45.90;;;14.92;38.17;97904.41;5029324;28;20045;-61
2021/04/01 01:00:28;;;;;;;9.52;3.42;;;14.30;46.30;;;14.86;38.04;97910.50;5028196;28;20051;-61
2021/04/01 01:02:55;;;;;;;7.72;3.88;;;14.30;46.30;;;14.78;38.37;97906.03;5029247;28;20046;-61
2021/04/01 01:05:25;;;;;;;9.25;3.70;;;14.10;46.60;;;14.73;38.52;97911.09;5027783;28;20052;-61
2021/04/01 01:07:52;;;;;;;5.97;3.58;;;14.10;47.00;;;14.69;38.74;97907.13;5028854;28;20060;-61
2021/04/01 01:10:29;;;;;;;5.03;3.00;;;14.10;47.10;;;14.64;38.85;97896.13;5028573;28;20041;-60
2021/04/01 01:12:59;;;;;;;5.50;2.85;;;14.00;48.10;;;14.59;39.04;97903.88;5028643;28;20055;-61
2021/04/01 01:15:28;;;;;;;5.75;3.55;;;13.90;47.60;;;14.54;39.07;97894.50;5027087;28;20063;-61
2021/04/01 01:17:56;;;;;;;8.38;3.25;;;14.00;47.60;;;14.50;39.17;97895.88;5027283;28;20068;-60
2021/04/01 01:20:28;;;;;;;4.78;2.90;;;13.90;47.80;;;14.47;39.19;97890.88;5027133;28;20083;-60
2021/04/01 01:23:18;;;;;;;5.35;3.42;;;13.90;48.10;;;14.39;39.30;97888.25;5027189;28;20053;-61
2021/04/01 01:25:45;;;;;;;7.00;3.53;;;13.80;47.90;;;14.37;39.36;97879.56;5027780;28;20063;-61
2021/04/01 01:28:13;;;;;;;7.13;3.70;;;13.80;47.80;;;14.36;39.20;97880.56;5027069;28;20052;-60
2021/04/01 01:30:40;;;;;;;6.20;4.70;;;13.80;47.80;;;14.32;39.27;97884.63;5028258;28;20077;-60
2021/04/01 01:33:08;;;;;;;8.60;3.45;;;13.70;47.90;;;14.29;39.47;97876.97;5028078;28;20057;-61
2021/04/01 01:35:37;;;;;;;5.65;3.20;;;13.70;47.70;;;14.30;39.54;97879.44;5026984;28;20057;-61
2021/04/01 01:38:08;;;;;;;8.40;3.50;;;13.80;47.70;;;14.31;39.21;97875.75;5027352;28;20053;-61
2021/04/01 01:40:37;;;;;;;4.55;2.78;;;13.80;47.50;;;14.32;39.13;97880.09;5027187;28;20067;-61
2021/04/01 01:43:11;;;;;;;4.05;2.75;;;13.80;47.30;;;14.34;39.50;97866.53;5026745;28;20053;-60
2021/04/01 01:45:40;;;;;;;;;;;13.90;47.90;;;14.34;39.44;97871.88;5026461;28;20046;-60
2021/04/01 01:48:08;;;;;;;4.95;2.78;;;13.80;48.60;;;14.35;39.24;97863.69;5043011;28;19929;-60
2021/04/01 01:50:38;;;;;;;6.70;3.42;;;13.80;47.50;;;14.33;39.37;97860.34;5027418;28;20053;-61
2021/04/01 01:53:07;;;;;;;5.35;3.97;;;13.80;47.80;;;14.32;39.58;97864.03;5027226;28;20053;-61
2021/04/01 01:55:36;;;;;;;6.05;3.05;;;13.80;47.80;;;14.32;39.57;97861.34;5028072;28;20252;-60
2021/04/01 01:58:05;;;;;;;5.90;2.80;;;13.80;47.70;;;14.33;39.81;97863.03;5026561;28;20057;-60
2021/04/01 02:00:39;;;;;;;4.93;3.13;;;13.80;48.10;;;14.32;39.80;97860.53;5027395;28;20064;-60
2021/04/01 02:03:08;;;;;;;6.57;3.25;;;13.80;48.40;;;14.31;39.92;97869.59;5026330;28;20045;-61
2021/04/01 02:05:37;;;;;;;6.40;2.95;;;13.80;48.30;;;14.30;40.04;97865.22;5027141;28;20057;-61
2021/04/01 02:08:07;;;;;;;4.82;2.85;;;13.80;48.60;;;14.27;40.13;97860.22;5024966;28;20060;-61
2021/04/01 02:10:43;;;;;;;13.27;3.30;;;13.70;48.90;;;14.24;40.46;97858.75;5027720;28;20054;-61
2021/04/01 02:13:17;;;;;;;7.15;3.25;;;13.70;49.70;;;14.23;40.24;97859.75;5027383;28;20053;-61
2021/04/01 02:15:47;;;;;;;4.15;3.63;;;13.70;48.90;;;14.20;40.54;97854.75;5025152;28;20051;-60
2021/04/01 02:18:27;;;;;;;5.07;2.83;;;13.60;49.20;;;14.13;40.48;97853.78;5026879;28;20049;-60
2021/04/01 02:21:00;;;;;;;5.82;3.28;;;13.50;49.20;;;14.10;40.38;97848.81;5025806;28;20068;-60
2021/04/01 02:23:33;;;;;;;5.45;3.20;;;13.50;49.50;;;14.09;40.42;97842.59;5027110;28;20459;-60
2021/04/01 02:26:03;;;;;;;8.43;4.50;;;13.60;49.50;;;14.09;40.39;97841.78;5025608;28;20385;-60
2021/04/01 02:28:33;;;;;;;18.00;3.65;;;13.50;49.20;;;14.03;40.83;97845.19;5027788;28;20054;-60
2021/04/01 02:31:05;;;;;;;10.23;3.20;;;13.50;49.50;;;14.03;40.92;97843.31;5026055;28;20049;-60
2021/04/01 02:33:37;;;;;;;6.97;3.30;;;13.50;49.50;;;14.01;41.05;97840.00;5026373;28;20343;-61
2021/04/01 02:36:06;;;;;;;6.30;3.60;;;13.50;49.50;;;14.02;40.84;97846.22;5027420;28;20057;-60
2021/04/01 02:38:33;;;;;;;4.75;2.88;;;13.50;49.20;;;14.01;40.73;97839.16;5026797;28;20053;-61
2021/04/01 02:41:01;;;;;;;7.25;2.97;;;13.50;49.30;;;14.03;40.77;97842.50;5027141;28;20045;-61
2021/04/01 02:43:34;;;;;;;5.13;3.10;;;13.50;49.20;;;14.03;40.61;97839.81;5026963;28;20053;-61
2021/04/01 02:46:07;;;;;;;4.15;3.15;;;13.60;49.00;;;14.05;40.94;97840.47;5026646;28;20053;-60
2021/04/01 02:48:36;;;;;;;7.85;3.55;;;13.60;49.70;;;14.04;40.78;97836.16;5027298;28;20415;-61
2021/04/01 02:51:04;;;;;;;5.93;3.30;;;13.60;49.20;;;14.03;41.26;97839.81;5026202;28;20053;-61
2021/04/01 02:53:31;;;;;;;6.47;3.83;;;13.50;49.60;;;13.99;41.24;97839.34;5026205;28;20064;-61
2021/04/01 02:55:59;;;;;;;8.98;4.38;;;13.40;50.00;;;13.96;41.55;97837.03;5027225;28;20519;-61
2021/04/01 02:58:27;;;;;;;4.65;3.60;;;13.40;50.10;;;13.94;41.27;97829.19;5026373;28;20067;-61
2021/04/01 03:00:55;;;;;;;6.45;3.20;;;13.40;50.10;;;13.91;41.46;97834.88;5026716;28;20045;-61
2021/04/01 03:03:27;;;;;;;5.72;3.28;;;13.40;50.20;;;13.90;41.54;97838.59;5026404;28;20057;-61
2021/04/01 03:05:56;;;;;;;5.13;3.40;;;13.30;50.20;;;13.89;41.60;97838.75;5026570;28;20041;-61
2021/04/01 03:08:24;;;;;;;6.57;3.45;;;13.40;50.50;;;13.85;41.67;97832.91;5025733;28;20049;-61
2021/04/01 03:10:52;;;;;;;6.57;3.47;;;13.30;50.40;;;13.84;41.58;97833.94;5023684;28;20060;-61
2021/04/01 03:13:20;;;;;;;7.95;3.75;;;13.30;50.20;;;13.82;41.49;97835.94;5024138;28;20058;-61
2021/04/01 03:15:49;;;;;;;5.32;3.28;;;13.30;50.10;;;13.82;41.41;97837.78;5024434;28;20361;-61
2021/04/01 03:18:19;;;;;;;6.32;3.47;;;13.30;50.10;;;13.80;41.44;97832.59;5026201;28;20502;-61
2021/04/01 03:20:47;;;;;;;3.45;3.10;;;13.30;50.20;;;13.79;41.41;97834.47;5026182;28;20341;-61
2021/04/01 03:23:15;;;;;;;7.10;3.33;;;13.30;50.10;;;13.75;41.54;97835.00;5025740;28;20343;-60
2021/04/01 03:25:43;;;;;;;5.65;3.65;;;13.20;50.30;;;13.72;41.90;97843.38;5026640;28;20049;-61
2021/04/01 03:28:12;;;;;;;7.18;3.70;;;13.20;50.60;;;13.67;41.79;97835.06;5024573;28;20057;-60
2021/04/01 03:33:26;;;;;;;4.85;3.47;;;13.10;51.00;;;13.65;42.25;97834.38;5026196;28;20079;-60
2021/04/01 03:35:53;;;;;;;8.32;3.88;;;13.10;51.10;;;13.63;42.34;97833.72;5025676;28;20049;-61
2021/04/01 03:38:21;;;;;;;6.00;4.10;;;13.10;51.10;;;13.61;41.99;97838.41;5025490;28;20054;-61
2021/04/01 03:40:53;;;;;;;4.65;3.20;;;13.10;50.80;;;13.59;42.13;97842.09;5027219;28;20071;-61
2021/04/01 03:43:25;;;;;;;8.30;4.07;;;13.10;51.00;;;13.59;42.10;97849.31;5026312;28;20041;-61
2021/04/01 03:45:54;;;;;;;4.38;3.40;;;13.10;51.10;;;13.54;42.12;97849.00;5024735;28;20054;-61
2021/04/01 03:48:21;;;;;;;7.35;4.80;;;13.00;51.10;;;13.47;42.61;97845.34;5025020;28;20261;-61
2021/04/01 03:50:49;;;;;;;11.80;5.68;;;12.90;51.50;;;13.46;42.11;97843.69;5022505;28;20067;-61
2021/04/01 03:53:17;;;;;;;11.60;4.38;;;12.90;51.50;;;13.43;42.44;97842.19;5025640;28;20049;-61
2021/04/01 08:08:24;;;;;;;5.75;3.58;;;15.60;52.90;;;15.56;44.07;97885.09;4793354;26;20039;-56
2021/04/01 08:11:03;;;;;;;;;;;15.90;50.50;;;15.72;43.42;97878.66;4939049;29;20058;-58
2021/04/01 08:13:42;;;;;;;7.63;3.63;;;16.20;49.10;;;15.89;43.52;97880.13;4946662;29;19918;-58
2021/04/01 08:16:36;;;;;;;5.13;3.50;;;16.40;49.30;;;16.08;43.33;97869.81;4957257;29;20047;-46
2021/04/01 08:19:21;;;;;;;7.38;4.35;;;16.60;49.30;;;16.21;43.52;97875.31;4960393;29;20255;-49
2021/04/01 08:22:20;;;;;;;10.00;3.88;;;16.80;49.10;;;16.38;43.18;97889.34;4949131;29;20055;-49
2021/04/01 08:25:13;;;;;;;7.30;3.78;;;16.90;48.90;;;16.53;42.93;97889.25;4941381;29;20052;-48
2021/04/01 08:28:18;;;;;;;7.70;4.45;;;17.10;48.80;;;16.70;42.92;97884.44;4942981;29;20043;-49
2021/04/01 08:31:23;;;;;;;11.73;5.03;;;17.30;48.40;;;16.82;42.59;97885.59;4943297;29;20052;-48
2021/04/01 08:34:19;;;;;;;7.22;4.40;;;17.40;48.40;;;16.87;42.01;97885.03;4941414;29;20067;-51
2021/04/01 08:37:12;;;;;;;7.05;4.15;;;17.50;47.70;;;16.91;41.92;97884.44;4934479;29;20063;-51
2021/04/01 08:40:03;;;;;;;7.38;5.07;;;17.50;47.60;;;17.05;43.06;97887.22;4930676;29;20732;-51
2021/04/01 08:42:54;;;;;;;9.35;6.65;;;17.50;49.70;;;17.09;42.17;97889.28;4928263;29;20052;-51
2021/04/01 08:45:54;;;;;;;7.60;5.43;;;17.50;48.00;;;17.17;42.26;97882.13;4927853;29;20053;-50
2021/04/01 08:49:00;;;;;;;9.88;4.65;;;17.60;48.20;;;17.13;40.54;97877.13;4927133;29;20070;-51
2021/04/01 08:51:54;;;;;;;9.93;5.10;;;17.50;45.80;;;17.15;40.27;97884.16;4926443;29;20052;-48
2021/04/01 08:54:55;;;;;;;7.10;5.30;;;17.60;46.00;;;17.15;40.79;97879.63;4927767;29;20060;-52
2021/04/01 08:57:45;;;;;;;12.73;5.57;;;17.50;47.00;;;17.06;41.54;97884.34;4926823;29;20059;-49
2021/04/01 09:00:17;;;;;;;10.98;5.88;;;17.50;47.70;;;17.15;41.54;97873.41;4925985;29;20051;-48
2021/04/01 09:02:50;;;;;;;10.70;5.45;;;17.50;47.80;;;17.08;41.44;97879.59;4926853;29;20044;-50
2021/04/01 09:05:21;;;;;;;9.18;5.07;;;17.40;47.30;;;17.07;40.83;97872.53;4915335;29;20071;-48
2021/04/01 09:08:01;;;;;;;11.30;4.45;;;17.40;46.90;;;17.10;40.78;97880.22;4913170;29;20526;-50
2021/04/01 09:10:37;;;;;;;9.07;5.15;;;17.50;46.90;;;17.16;41.08;97885.81;4912317;29;20256;-52
2021/04/01 09:13:16;;;;;;;9.65;4.90;;;17.50;46.90;;;17.12;40.77;97880.84;4911661;29;20242;-52
2021/04/01 09:15:52;;;;;;;9.15;3.78;;;17.50;46.70;;;17.08;40.28;97881.44;4911809;29;20445;-49
2021/04/01 09:18:29;;;;;;;8.38;5.05;;;17.50;46.10;;;17.14;40.46;97880.66;4912313;29;20068;-53
2021/04/01 09:21:02;;;;;;;7.80;4.97;;;17.50;46.20;;;17.10;39.48;97882.91;4910921;29;20391;-50
2021/04/01 09:23:42;;;;;;;8.23;5.32;;;17.50;45.40;;;17.21;40.24;97878.81;4913406;29;20060;-47
2021/04/01 09:26:12;;;;;;;8.35;4.70;;;17.60;45.80;;;17.21;39.75;97873.44;4911618;29;20064;-53
2021/04/01 09:28:43;;;;;;;10.82;5.00;;;17.70;45.10;;;17.35;40.29;97870.81;4910808;29;20352;-54
2021/04/01 09:31:13;;;;;;;11.90;4.32;;;17.80;45.90;;;17.46;40.30;97867.56;4908908;29;20056;-48
2021/04/01 09:33:42;;;;;;;9.90;4.88;;;17.80;46.30;;;17.47;39.88;97869.25;4912019;29;20048;-49
2021/04/01 09:36:22;;;;;;;6.65;4.20;;;17.80;45.60;;;17.57;39.95;97864.31;4911193;29;20082;-47
2021/04/01 09:38:58;;;;;;;6.70;3.92;;;17.90;45.80;;;17.62;39.48;97869.09;4911329;29;20063;-48
2021/04/01 09:41:33;;;;;;;10.32;4.47;;;18.10;44.70;;;17.75;39.63;97868.31;4911059;29;20050;-51
2021/04/01 09:44:09;;;;;;;10.52;5.10;;;18.20;45.10;;;17.86;39.81;97865.91;4910965;29;20059;-53
2021/04/01 09:46:54;;;;;;;7.28;4.07;;;18.40;45.20;;;17.92;38.98;97860.75;4908851;29;20048;-54
2021/04/01 09:49:28;;;;;;;6.18;3.55;;;18.50;44.00;;;18.02;38.50;97858.50;4909145;29;20066;-50
2021/04/01 09:51:56;;;;;;;7.25;4.13;;;18.70;43.00;;;18.16;38.72;97857.47;4909606;29;20055;-49
2021/04/01 09:54:26;;;;;;;7.38;3.85;;;18.80;43.90;;;18.25;38.20;97866.22;4911261;29;20059;-49
2021/04/01 09:56:59;;;;;;;6.38;3.58;;;18.90;42.90;;;18.31;37.84;97857.31;4909406;29;20063;-51
2021/04/01 09:59:45;;;;;;;6.72;3.50;;;19.00;42.70;;;18.42;38.03;97859.38;4910872;29;20351;-49
2021/04/01 10:02:41;;;;;;;6.28;3.13;;;19.10;43.10;;;18.53;37.44;97855.22;4911788;29;20056;-53
2021/04/01 10:05:11;;;;;;;6.97;3.45;;;19.10;42.00;;;18.59;37.97;97849.03;4909110;29;20245;-55
2021/04/01 10:07:55;;;;;;;3.72;3.15;;;19.20;42.90;;;18.69;37.61;97844.03;4909209;29;20060;-51
2021/04/01 10:10:44;;;;;;;9.18;3.33;;;19.20;42.30;;;18.74;37.00;97829.09;4909187;29;20070;-53
2021/04/01 10:13:22;;;;;;;10.85;4.10;;;19.30;42.00;;;18.83;37.46;97833.28;4910758;29;20072;-51
2021/04/01 10:15:52;;;;;;;5.10;3.47;;;19.30;42.70;;;18.83;37.56;97827.88;4909876;29;20361;-51
2021/04/01 10:18:41;;;;;;;4.40;2.95;;;19.30;42.70;;;18.92;36.06;97831.19;4910657;29;20060;-52
2021/04/01 10:21:10;;;;;;;5.28;2.53;;;19.60;40.30;;;18.94;36.07;97824.56;4893845;29;20349;-50
2021/04/01 10:23:59;;;;;;;8.98;2.75;;;19.60;40.10;;;19.04;35.57;97816.84;4894090;29;20060;-50
2021/04/01 10:26:39;;;;;;;4.03;2.83;;;19.60;40.50;;;19.17;36.31;97815.16;4909929;29;20059;-49
2021/04/01 10:29:10;;;;;;;4.28;2.70;;;19.90;40.60;;;19.27;36.02;97813.66;4909759;29;20062;-49
2021/04/01 10:31:52;;;;;;;10.57;3.85;;;19.90;40.10;;;19.35;35.37;97803.66;4911242;29;20361;-52
2021/04/01 10:34:55;;;;;;;5.05;3.20;;;20.10;39.40;;;19.44;34.83;97808.63;4910805;29;20064;-48
2021/04/01 10:37:25;;;;;;;4.55;3.03;;;20.20;39.10;;;19.54;35.76;97801.94;4910724;29;20350;-50
2021/04/01 10:39:53;;;;;;;4.80;3.10;;;20.10;40.50;;;19.53;35.01;97803.81;4909684;29;20067;-49
2021/04/01 10:42:31;;;;;;;5.55;2.97;;;20.20;39.30;;;19.62;35.24;97804.41;4909819;29;20074;-52
2021/04/01 10:45:11;;;;;;;8.93;3.30;;;20.30;39.30;;;19.71;35.34;97800.38;4909705;29;20056;-47
2021/04/01 10:47:50;;;;;;;5.70;3.10;;;20.20;39.50;;;19.79;35.58;97794.78;4910564;29;20044;-49
2021/04/01 10:50:19;;;;;;;6.35;3.60;;;20.20;40.40;;;19.84;35.28;97792.25;4909903;29;20063;-51
2021/04/01 10:52:47;;;;;;;4.28;3.15;;;20.40;40.00;;;19.86;35.30;97786.63;4910715;29;20461;-49
2021/04/01 10:55:15;;;;;;;5.60;3.28;;;20.50;39.60;;;19.88;34.84;97779.13;4910790;29;20060;-48
2021/04/01 10:57:42;;;;;;;4.05;3.25;;;20.50;39.10;;;19.97;35.03;97783.25;4910630;29;20064;-51
2021/04/01 11:00:14;;;;;;;4.88;3.00;;;20.60;39.60;;;19.99;34.75;97780.31;4909030;29;20064;-49
2021/04/01 11:02:50;;;;;;;5.97;2.63;;;20.50;39.10;;;19.99;33.92;97773.03;4909015;29;20060;-52
2021/04/01 11:05:20;;;;;;;10.85;4.72;;;20.60;38.30;;;20.05;34.61;97768.63;4909106;29;20227;-51
2021/04/01 11:08:04;;;;;;;5.47;2.78;;;20.60;39.00;;;20.14;34.98;97772.72;4908088;29;20066;-49
2021/04/01 11:10:33;;;;;;;;;;;20.70;39.70;;;20.10;33.64;97766.09;4909146;29;20052;-54
2021/04/01 11:13:04;;;;;;;8.20;3.33;;;20.70;37.50;;;20.21;34.44;97768.09;4908983;29;20227;-52
2021/04/01 11:15:35;;;;;;;4.95;3.75;;;20.90;38.20;;;20.31;34.14;97759.47;4907390;29;20068;-49
2021/04/01 11:18:14;;;;;;;4.05;2.78;;;21.00;38.50;;;20.37;34.53;97763.19;4921433;29;20044;-50
2021/04/01 11:20:43;;;;;;;4.70;2.88;;;21.00;38.90;;;20.45;33.75;97765.59;4925210;29;20043;-53
2021/04/01 11:23:17;;;;;;;5.65;3.65;;;21.10;37.90;;;20.51;33.91;97759.31;4911449;29;20059;-52
2021/04/01 11:25:49;;;;;;;;;;;21.10;38.00;;;20.46;33.37;97759.97;4927837;29;20052;-49
2021/04/01 11:28:17;;;;;;;9.00;4.03;;;21.10;37.30;;;20.45;33.07;97765.59;4927617;29;19927;-49
2021/04/01 11:30:53;;;;;;;3.97;2.88;;;21.00;37.00;;;20.46;32.85;97751.03;4929085;29;20058;-52
2021/04/01 11:33:27;;;;;;;4.95;3.25;;;21.10;36.80;;;20.55;32.43;97749.72;4928145;29;20070;-50
2021/04/01 11:36:11;;;;;;;3.47;2.67;;;21.30;36.50;;;20.63;32.94;97749.44;4928518;29;20060;-50
2021/04/01 11:38:49;;;;;;;5.05;3.20;;;21.40;36.40;;;20.71;33.30;97748.34;4928591;29;20066;-51
2021/04/01 11:41:20;;;;;;;4.75;2.92;;;21.40;37.20;;;20.79;33.48;97742.63;4927298;29;20054;-49
2021/04/01 11:43:57;;;;;;;4.22;2.80;;;21.40;38.00;;;20.84;33.24;97745.50;4925870;29;20395;-54
2021/04/01 11:46:32;;;;;;;7.10;3.53;;;21.50;37.10;;;20.92;32.40;97746.22;4910353;29;20047;-50
2021/04/01 11:49:00;;;;;;;4.05;2.85;;;21.60;36.40;;;20.87;32.61;97744.22;4912354;29;20059;-51
2021/04/01 11:51:33;;;;;;;7.13;3.33;;;21.50;36.90;;;20.88;32.24;97737.75;4925274;29;20052;-53
2021/04/01 11:54:08;;;;;;;5.22;2.60;;;21.60;36.70;;;21.01;32.70;97742.19;4910770;29;20337;-49
2021/04/01 11:56:44;;;;;;;5.18;3.20;;;21.70;37.00;;;21.11;32.73;97737.09;4926671;29;20062;-49
2021/04/01 11:59:19;;;;;;;7.68;3.60;;;21.80;37.00;;;21.25;32.77;97737.75;4928281;29;20055;-48
2021/04/01 12:01:59;;;;;;;6.32;4.25;;;22.00;37.10;;;21.36;32.56;97738.84;4926822;29;20364;-46
2021/04/01 12:04:30;;;;;;;4.40;3.10;;;22.00;36.20;;;21.46;32.09;97733.75;4927979;29;20226;-51
2021/04/01 12:06:58;;;;;;;4.82;3.15;;;22.10;36.80;;;21.57;31.77;97741.09;4926543;29;20537;-49
2021/04/01 12:09:27;;;;;;;4.15;3.00;;;22.20;35.20;;;21.63;31.96;97744.75;4926594;29;20055;-48
2021/04/01 12:11:54;;;;;;;5.43;3.45;;;22.20;36.20;;;21.69;31.79;97734.88;4927486;29;20067;-50
2021/04/01 12:14:36;;;;;;;3.28;2.60;;;22.30;36.10;;;21.83;31.07;97730.94;4927306;29;20054;-52
2021/04/01 12:17:06;;;;;;;8.60;3.47;;;22.40;35.20;;;21.90;31.14;97734.34;4933968;29;20063;-47
2021/04/01 12:19:35;;;;;;;4.38;3.05;;;22.50;34.70;;;21.99;30.73;97721.31;4946472;29;20051;-53
2021/04/01 12:22:08;;;;;;;7.57;2.72;;;22.60;34.80;;;22.08;30.84;97719.94;4928813;29;20057;-50
2021/04/01 12:24:37;;;;;;;7.45;2.92;;;22.70;35.20;;;22.15;30.66;97714.38;4944741;28;20069;-49
2021/04/01 12:27:05;;;;;;;7.53;3.22;;;22.80;34.70;;;22.26;30.18;97712.78;4929016;29;20352;-49
2021/04/01 12:29:44;;;;;;;6.80;3.67;;;23.00;34.20;;;22.26;28.73;97715.50;4946218;29;20055;-49
2021/04/01 12:32:12;;;;;;;5.05;3.30;;;23.00;32.30;;;22.39;30.21;97709.81;4947011;28;20284;-48
2021/04/01 12:34:39;;;;;;;6.30;2.97;;;23.10;34.40;;;22.50;30.17;97705.47;4944582;29;20050;-48
2021/04/01 12:37:15;;;;;;;6.10;2.50;;;23.20;34.40;;;22.55;28.66;97706.41;4946061;29;20242;-48
2021/04/01 12:39:42;;;;;;;6.13;2.67;;;23.30;32.30;;;22.60;29.37;97702.97;4949961;29;20143;-49
2021/04/01 12:42:12;;;;;;;4.70;3.03;;;23.30;33.20;;;22.66;29.15;97710.16;4948572;29;20367;-50
2021/04/01 12:44:45;;;;;;;4.30;2.70;;;23.30;32.90;;;22.78;29.37;97702.03;4947661;29;20058;-51
2021/04/01 12:47:22;;;;;;;6.40;3.22;;;23.40;32.30;;;22.80;28.92;97714.28;4950093;29;20043;-49
2021/04/01 12:49:50;;;;;;;6.70;3.88;;;23.50;32.90;;;22.81;29.12;97709.69;4949358;29;20051;-47
2021/04/01 12:52:17;;;;;;;7.10;3.63;;;23.40;32.40;;;22.69;29.19;97711.59;4950747;29;20078;-49
2021/04/01 12:54:52;;;;;;;7.30;3.88;;;23.30;33.00;;;22.73;28.57;97707.34;4949266;29;20051;-50
2021/04/01 12:57:24;;;;;;;3.95;3.33;;;23.30;32.80;;;22.81;29.75;97713.22;4949462;29;20344;-51
2021/04/01 13:00:24;;;;;;;5.38;3.58;;;23.30;33.80;;;22.86;29.68;97707.09;4929464;29;20063;-50
2021/04/01 13:02:52;;;;;;;5.10;3.60;;;23.40;33.90;;;22.89;29.80;97705.78;4927610;29;20058;-47
2021/04/01 13:05:20;;;;;;;5.68;3.40;;;23.40;33.90;;;22.86;29.05;97701.66;4915995;29;20056;-48
2021/04/01 13:12:48;;;;;;;7.22;4.75;;;23.40;33.60;;;22.87;29.05;97707.91;4910929;29;20372;-50
2021/04/01 13:15:16;;;;;;;7.63;4.40;;;23.30;33.60;;;22.82;29.50;97714.06;4910721;29;20072;-52
2021/04/01 13:17:43;;;;;;;7.00;4.25;;;23.20;33.50;;;22.81;29.66;97709.69;4913933;29;20076;-50
2021/04/01 13:20:14;;;;;;;7.32;3.67;;;23.20;33.80;;;22.72;29.14;97703.81;4911008;29;20052;-52
2021/04/01 13:23:30;;;;;;;7.88;3.47;;;23.10;33.60;;;22.76;29.46;97704.97;4912218;29;20052;-53
2021/04/01 13:25:31;;;;;;;4.35;2.92;;;23.10;33.90;;;22.46;28.59;97704.28;4904068;29;20066;-53
2021/04/01 13:28:08;;;;;;;7.18;3.75;;;22.90;32.70;;;22.44;28.72;97701.00;4894969;29;20059;-48
2021/04/01 13:30:37;;;;;;;6.63;3.55;;;22.80;33.00;;;22.45;28.75;97699.91;4910792;29;20346;-51
2021/04/01 13:38:10;;;;;;;3.30;3.00;;;22.70;34.00;;;22.20;29.40;97690.13;4909979;29;20334;-51
2021/04/01 13:40:44;;;;;;;5.30;3.25;;;22.70;33.40;;;22.28;29.40;97684.38;4909474;29;20066;-53
2021/04/01 13:43:15;;;;;;;6.38;3.38;;;22.70;33.50;;;22.37;29.86;97690.25;4911435;29;20066;-51
2021/04/01 13:45:43;;;;;;;7.15;4.05;;;22.70;34.20;;;22.36;29.69;97688.63;4912813;29;20063;-48
2021/04/01 13:48:18;;;;;;;5.47;3.22;;;22.80;34.00;;;22.30;29.65;97682.25;4911728;29;20054;-52
2021/04/01 13:51:02;;;;;;;6.38;4.50;;;22.70;34.50;;;22.34;29.96;97691.56;4910515;29;20052;-51
2021/04/01 13:53:56;;;;;;;6.65;4.47;;;22.60;34.90;;;22.42;30.33;97695.78;4926364;29;20058;-53
2021/04/01 13:56:30;;;;;;;11.73;5.18;;;22.70;34.80;;;22.53;30.01;97681.41;4930333;29;20067;-50
2021/04/01 13:59:26;;;;;;;8.60;4.95;;;22.80;34.50;;;22.57;29.28;97687.19;4930159;29;20060;-54
2021/04/01 14:10:31;;;;;;;7.15;4.68;;;22.80;32.70;;;22.25;28.60;97679.41;4928600;29;20060;-51
2021/04/01 14:13:03;;;;;;;9.68;4.07;;;22.60;32.50;;;22.35;28.56;97668.81;4930148;29;20054;-54
2021/04/01 14:15:32;;;;;;;9.02;4.28;;;22.60;32.70;;;22.40;28.36;97671.63;4928564;29;20055;-54
2021/04/01 14:18:00;;;;;;;6.90;3.80;;;22.70;32.20;;;22.34;27.97;97663.63;4929848;29;20058;-51
2021/04/01 14:20:29;;;;;;;5.65;4.30;;;22.60;30.90;;;22.41;27.92;97656.16;4929102;29;20050;-53
2021/04/01 14:22:57;;;;;;;7.35;4.78;;;22.70;31.90;;;22.36;26.93;97661.50;4927706;29;20063;-53
2021/04/01 14:25:39;;;;;;;8.45;4.05;;;22.70;30.90;;;22.40;28.13;97665.38;4927719;29;20047;-53
2021/04/01 14:28:06;;;;;;;6.93;3.75;;;22.70;31.60;;;22.30;28.25;97654.31;4929996;29;20058;-48
2021/04/01 14:30:35;;;;;;;8.50;3.80;;;22.60;32.00;;;22.29;27.63;97653.47;4912260;29;20062;-55
2021/04/01 14:33:04;;;;;;;8.63;4.13;;;22.60;31.50;;;22.34;28.18;97650.06;4912297;29;20415;-52
2021/04/01 14:35:36;;;;;;;9.23;3.53;;;22.70;32.20;;;22.45;28.27;97651.09;4929758;29;20050;-50
2021/04/01 14:38:05;;;;;;;6.13;3.50;;;22.80;32.50;;;22.23;27.90;97655.19;4927183;29;20208;-54
2021/04/01 14:43:13;;;;;;;7.38;3.92;;;22.60;32.40;;;22.35;28.25;97646.28;4928769;29;20063;-51
2021/04/01 14:45:41;;;;;;;4.97;3.63;;;22.60;32.80;;;22.30;28.60;97640.75;4911835;29;20349;-50
2021/04/01 14:48:10;;;;;;;6.63;4.03;;;22.60;33.00;;;22.38;29.12;97641.19;4927980;29;20059;-50
2021/04/01 14:50:39;;;;;;;8.38;4.68;;;22.70;33.70;;;22.41;28.65;97637.19;4928667;29;20058;-52
2021/04/01 14:53:20;;;;;;;6.47;4.10;;;22.70;33.40;;;22.49;28.98;97636.00;4929812;29;20056;-52
2021/04/01 14:55:48;;;;;;;5.65;4.03;;;22.70;33.20;;;22.50;28.91;97643.06;4928788;29;20060;-53
2021/04/01 14:58:18;;;;;;;7.15;4.30;;;22.80;33.80;;;22.41;28.33;97639.88;4928343;29;20257;-54
2021/04/01 15:00:46;;;;;;;6.07;4.38;;;22.70;32.80;;;22.47;28.54;97638.13;4928115;29;20060;-51
2021/04/01 15:03:14;;;;;;;8.00;3.90;;;22.70;32.90;;;22.45;28.08;97634.81;4927755;29;20055;-54
2021/04/01 15:05:44;;;;;;;7.47;4.97;;;22.80;32.40;;;22.39;27.53;97633.88;4929277;29;20371;-48
2021/04/01 15:08:12;;;;;;;5.40;4.40;;;22.70;31.10;;;22.45;27.96;97643.81;4928136;29;20066;-51
2021/04/01 15:10:40;;;;;;;9.02;4.78;;;22.70;32.00;;;22.44;27.91;97642.13;4928538;29;20058;-50
2021/04/01 15:13:07;;;;;;;10.48;6.05;;;22.70;31.90;;;22.48;27.80;97629.75;4929607;29;20051;-55
2021/04/01 15:15:35;;;;;;;9.45;6.10;;;22.70;31.80;;;22.43;27.57;97629.66;4929743;29;20059;-54
2021/04/01 15:18:03;;;;;;;9.63;5.93;;;22.60;31.30;;;22.41;27.68;97635.31;4925676;29;20070;-51
2021/04/01 15:20:31;;;;;;;10.55;6.50;;;22.70;31.90;;;22.41;27.84;97635.31;4927875;29;20353;-55
2021/04/01 15:22:58;;;;;;;10.95;6.82;;;22.70;31.50;;;22.46;27.01;97631.88;4911348;29;20063;-50